createdAt,value
2023-03-29T00:02:00.787Z,-2.41
2023-03-29T00:04:31.685Z,-2.32
2023-03-29T00:07:04.514Z,-2.53
2023-03-29T00:09:35.779Z,-2.59
2023-03-29T00:12:05.150Z,-2.58
2023-03-29T00:14:34.254Z,-2.57
2023-03-29T00:17:04.600Z,-2.58
2023-03-29T00:19:35.733Z,-2.38
2023-03-29T00:22:06.608Z,-2.01
2023-03-29T00:24:36.162Z,-2.07
2023-03-29T00:27:05.756Z,-1.95
2023-03-29T00:29:34.858Z,-2.11
2023-03-29T00:32:03.772Z,-2.37
2023-03-29T00:34:32.708Z,-2.37
2023-03-29T00:37:04.144Z,-2.51
2023-03-29T00:39:34.461Z,-2.16
2023-03-29T00:42:04.348Z,-2.18
2023-03-29T00:45:01.343Z,-2.29
2023-03-29T00:47:37.980Z,-2.22
2023-03-29T00:50:14.354Z,-2.32
2023-03-29T00:52:46.445Z,-2.38
2023-03-29T00:55:22.878Z,-2.36
2023-03-29T00:57:57.035Z,-2.34
2023-03-29T01:00:32.994Z,-2.26
2023-03-29T01:03:07.134Z,-2.34
2023-03-29T01:05:42.242Z,-2.45
2023-03-29T01:08:18.247Z,-2.38
2023-03-29T01:10:56.422Z,-2.21
2023-03-29T01:13:32.322Z,-2.11
2023-03-29T01:16:03.459Z,-2.05
2023-03-29T01:18:34.897Z,-2.04
2023-03-29T01:21:20.742Z,-2.20
2023-03-29T01:24:27.597Z,-2.30
2023-03-29T01:27:06.926Z,-2.30
2023-03-29T01:29:42.924Z,-2.23
2023-03-29T01:32:16.668Z,-2.24
2023-03-29T01:34:52.992Z,-2.17
2023-03-29T01:37:27.912Z,-2.11
2023-03-29T01:39:56.889Z,-2.15
2023-03-29T01:42:46.812Z,-2.38
2023-03-29T01:45:25.610Z,-2.39
2023-03-29T01:48:02.066Z,-2.48
2023-03-29T01:50:43.196Z,-2.50
2023-03-29T01:53:20.009Z,-2.65
2023-03-29T01:55:55.619Z,-2.77
2023-03-29T01:58:33.737Z,-2.76
2023-03-29T02:01:09.968Z,-2.68
2023-03-29T02:03:43.666Z,-2.72
2023-03-29T02:06:16.518Z,-2.67
2023-03-29T02:08:47.006Z,-2.57
2023-03-29T02:11:16.203Z,-2.38
2023-03-29T02:13:45.278Z,-2.32
2023-03-29T02:16:16.572Z,-2.34
2023-03-29T02:18:49.970Z,-2.32
2023-03-29T02:21:27.574Z,-2.18
2023-03-29T02:24:00.665Z,-2.05
2023-03-29T02:26:30.102Z,-1.96
2023-03-29T02:28:59.125Z,-2.01
2023-03-29T02:31:36.245Z,-2.01
2023-03-29T02:34:10.094Z,-1.97
2023-03-29T02:36:44.085Z,-1.98
2023-03-29T02:39:16.258Z,-1.98
2023-03-29T02:41:49.311Z,-2.02
2023-03-29T02:44:22.299Z,-2.12
2023-03-29T02:46:59.854Z,-2.13
2023-03-29T02:49:29.300Z,-2.06
2023-03-29T02:52:04.515Z,-1.86
2023-03-29T02:54:34.337Z,-1.86
2023-03-29T02:57:07.350Z,-1.87
2023-03-29T02:59:36.434Z,-1.88
2023-03-29T03:02:07.061Z,-1.90
2023-03-29T03:04:36.193Z,-1.82
2023-03-29T03:07:06.114Z,-1.83
2023-03-29T03:09:35.552Z,-1.77
2023-03-29T03:12:04.707Z,-1.62
2023-03-29T03:14:34.075Z,-1.74
2023-03-29T03:17:04.772Z,-1.85
2023-03-29T03:19:36.542Z,-2.04
2023-03-29T03:22:07.660Z,-2.14
2023-03-29T03:24:36.658Z,-2.13
2023-03-29T03:27:06.280Z,-2.17
2023-03-29T03:29:35.970Z,-2.15
2023-03-29T03:32:21.074Z,-2.11
2023-03-29T03:35:11.810Z,-1.82
2023-03-29T03:37:42.978Z,-1.80
2023-03-29T03:40:13.939Z,-1.72
2023-03-29T03:42:43.118Z,-1.84
2023-03-29T03:45:13.114Z,-1.94
2023-03-29T03:48:00.703Z,-1.91
2023-03-29T03:50:52.274Z,-1.81
2023-03-29T03:53:22.758Z,-1.75
2023-03-29T03:56:11.185Z,-1.74
2023-03-29T03:58:57.858Z,-1.78
2023-03-29T04:01:28.371Z,-1.58
2023-03-29T04:04:14.483Z,-1.66
2023-03-29T04:07:02.588Z,-1.63
2023-03-29T04:09:40.827Z,-1.67
2023-03-29T04:12:44.837Z,-1.53
2023-03-29T04:15:14.511Z,-1.62
2023-03-29T04:17:50.522Z,-1.62
2023-03-29T04:20:28.555Z,-1.46
2023-03-29T04:22:59.220Z,-1.56
2023-03-29T04:25:28.608Z,-1.51
2023-03-29T04:28:00.624Z,-1.61
2023-03-29T04:30:49.836Z,-1.74
2023-03-29T04:33:31.249Z,-1.76
2023-03-29T04:36:02.911Z,-1.75
2023-03-29T04:38:36.100Z,-1.68
2023-03-29T04:41:05.941Z,-1.73
2023-03-29T04:43:56.349Z,-1.72
2023-03-29T04:46:27.385Z,-1.63
2023-03-29T04:49:15.044Z,-1.50
2023-03-29T04:51:47.733Z,-1.40
2023-03-29T04:54:20.971Z,-1.32
2023-03-29T04:57:06.520Z,-1.16
2023-03-29T04:59:54.295Z,-1.16
2023-03-29T05:02:44.241Z,-1.26
2023-03-29T05:05:15.243Z,-1.19
2023-03-29T05:07:45.201Z,-1.27
2023-03-29T05:10:16.859Z,-1.12
2023-03-29T05:12:46.875Z,-1.24
2023-03-29T05:15:16.075Z,-1.16
2023-03-29T05:17:45.017Z,-1.08
2023-03-29T05:20:15.844Z,-1.05
2023-03-29T05:22:47.139Z,-1.05
2023-03-29T05:25:30.641Z,-0.99
2023-03-29T05:28:00.359Z,-0.90
2023-03-29T05:30:29.589Z,-0.85
2023-03-29T05:33:17.766Z,-0.89
2023-03-29T05:35:46.693Z,-0.80
2023-03-29T05:38:16.129Z,-0.65
2023-03-29T05:40:46.888Z,-0.63
2023-03-29T05:43:36.327Z,-0.42
2023-03-29T05:46:07.438Z,-0.36
2023-03-29T05:48:38.376Z,-0.21
2023-03-29T05:51:08.365Z,-0.18
2023-03-29T05:53:38.005Z,-0.13
2023-03-29T05:56:10.791Z,-0.01
2023-03-29T05:58:39.954Z,0.13
2023-03-29T06:01:13.892Z,0.34
2023-03-29T06:03:57.410Z,0.37
2023-03-29T06:06:32.664Z,0.52
2023-03-29T06:09:02.528Z,0.57
2023-03-29T06:11:42.420Z,0.65
2023-03-29T06:14:33.937Z,0.78
2023-03-29T06:17:13.620Z,0.89
2023-03-29T06:19:44.333Z,1.09
2023-03-29T06:22:14.917Z,1.20
2023-03-29T06:24:44.779Z,1.34
2023-03-29T06:27:25.238Z,1.47
2023-03-29T06:29:54.753Z,1.57
2023-03-29T06:32:23.914Z,1.66
2023-03-29T06:34:59.865Z,1.71
2023-03-29T06:37:34.008Z,1.77
2023-03-29T06:40:23.027Z,1.96
2023-03-29T06:42:57.796Z,2.12
2023-03-29T06:45:45.478Z,2.30
2023-03-29T06:48:22.733Z,2.46
2023-03-29T06:50:52.345Z,2.59
2023-03-29T06:53:23.697Z,2.70
2023-03-29T06:56:01.142Z,2.65
2023-03-29T06:58:57.321Z,2.70
2023-03-29T07:01:48.979Z,2.84
2023-03-29T07:04:28.715Z,2.60
2023-03-29T07:07:19.783Z,2.55
2023-03-29T07:09:55.661Z,2.48
2023-03-29T07:12:27.589Z,2.27
2023-03-29T07:15:03.155Z,2.26
2023-03-29T07:17:52.022Z,2.23
2023-03-29T07:20:23.080Z,2.39
2023-03-29T07:23:02.332Z,2.49
2023-03-29T07:25:34.037Z,2.66
2023-03-29T07:28:03.565Z,2.72
2023-03-29T07:30:34.532Z,2.86
2023-03-29T07:33:13.533Z,2.94
2023-03-29T07:35:49.151Z,2.96
2023-03-29T07:38:18.609Z,3.05
2023-03-29T07:40:56.536Z,3.09
2023-03-29T07:43:45.621Z,3.18
2023-03-29T07:46:17.843Z,3.30
2023-03-29T07:48:46.827Z,3.44
2023-03-29T07:51:17.322Z,3.47
2023-03-29T07:53:49.746Z,3.48
2023-03-29T07:56:51.045Z,3.48
2023-03-29T07:59:30.445Z,3.50
2023-03-29T08:02:29.029Z,3.60
2023-03-29T08:05:03.859Z,3.80
2023-03-29T08:07:59.376Z,4.06
2023-03-29T08:10:46.732Z,4.25
2023-03-29T08:13:36.566Z,4.46
2023-03-29T08:16:24.051Z,4.75
2023-03-29T08:19:02.653Z,5.07
2023-03-29T08:21:48.103Z,5.34
2023-03-29T08:24:21.093Z,5.65
2023-03-29T08:26:54.500Z,6.03
2023-03-29T08:29:23.797Z,6.42
2023-03-29T08:31:53.000Z,6.64
2023-03-29T08:34:23.500Z,6.78
2023-03-29T08:37:06.230Z,7.04
2023-03-29T08:39:41.964Z,7.20
2023-03-29T08:43:01.823Z,7.32
2023-03-29T08:46:02.520Z,7.52
2023-03-29T08:48:36.315Z,6.95
2023-03-29T08:51:19.110Z,7.35
2023-03-29T08:53:52.785Z,6.99
2023-03-29T08:56:41.075Z,7.25
2023-03-29T08:59:34.675Z,7.48
2023-03-29T09:02:19.069Z,7.41
2023-03-29T09:04:54.028Z,7.59
2023-03-29T09:07:44.772Z,7.94
2023-03-29T09:10:17.382Z,8.08
2023-03-29T09:13:09.621Z,8.14
2023-03-29T09:15:51.696Z,8.09
2023-03-29T09:18:40.395Z,8.04
2023-03-29T09:21:18.446Z,8.08
2023-03-29T09:24:42.710Z,8.12
2023-03-29T09:27:25.144Z,8.26
2023-03-29T09:30:25.837Z,8.49
2023-03-29T09:33:23.567Z,8.70
2023-03-29T09:36:19.125Z,8.49
2023-03-29T09:38:54.078Z,8.54
2023-03-29T09:41:32.757Z,8.64
2023-03-29T09:44:15.072Z,8.59
2023-03-29T09:46:57.318Z,8.68
2023-03-29T09:49:37.230Z,8.51
2023-03-29T09:52:13.939Z,8.44
2023-03-29T09:54:46.686Z,8.55
2023-03-29T09:57:43.802Z,8.52
2023-03-29T10:00:17.040Z,8.49
2023-03-29T10:02:52.796Z,8.31
2023-03-29T10:05:27.549Z,7.93
2023-03-29T10:08:01.243Z,7.59
2023-03-29T10:10:33.099Z,7.33
2023-03-29T10:13:08.621Z,7.42
2023-03-29T10:15:37.926Z,7.55
2023-03-29T10:18:13.967Z,7.67
2023-03-29T10:20:42.925Z,7.62
2023-03-29T10:23:19.587Z,7.59
2023-03-29T10:25:48.856Z,7.65
2023-03-29T10:28:22.708Z,7.62
2023-03-29T10:30:56.603Z,7.51
2023-03-29T10:33:28.903Z,7.16
2023-03-29T10:35:59.429Z,7.46
2023-03-29T10:38:30.833Z,7.55
2023-03-29T10:41:08.049Z,7.60
2023-03-29T10:43:40.825Z,7.43
2023-03-29T10:46:13.265Z,7.51
2023-03-29T10:48:47.588Z,7.46
2023-03-29T10:51:18.357Z,7.28
2023-03-29T10:53:47.732Z,7.52
2023-03-29T10:56:37.157Z,7.74
2023-03-29T10:59:28.183Z,7.93
2023-03-29T11:02:48.766Z,8.45
2023-03-29T11:05:28.999Z,9.26
2023-03-29T11:08:14.958Z,9.94
2023-03-29T11:10:55.027Z,10.07
2023-03-29T11:13:33.085Z,10.03
2023-03-29T11:16:17.912Z,10.53
2023-03-29T11:19:27.284Z,10.77
2023-03-29T11:22:06.743Z,11.04
2023-03-29T11:24:54.845Z,10.99
2023-03-29T11:27:36.917Z,11.04
2023-03-29T11:30:14.142Z,10.83
2023-03-29T11:32:55.754Z,10.50
2023-03-29T11:35:48.049Z,10.50
2023-03-29T11:38:30.540Z,10.23
2023-03-29T11:41:05.913Z,10.30
2023-03-29T11:43:39.434Z,10.40
2023-03-29T11:46:16.951Z,10.19
2023-03-29T11:48:54.002Z,9.78
2023-03-29T11:51:27.069Z,9.12
2023-03-29T11:54:03.519Z,8.99
2023-03-29T11:56:41.671Z,9.07
2023-03-29T11:59:17.386Z,8.91
2023-03-29T12:01:52.359Z,9.20
2023-03-29T12:04:31.438Z,9.37
2023-03-29T12:07:12.753Z,9.69
2023-03-29T12:09:47.866Z,10.13
2023-03-29T12:12:25.057Z,10.53
2023-03-29T12:15:04.915Z,10.99
2023-03-29T12:17:39.814Z,11.28
2023-03-29T12:20:19.122Z,11.26
2023-03-29T12:22:52.202Z,10.90
2023-03-29T12:25:30.093Z,10.76
2023-03-29T12:28:19.355Z,10.35
2023-03-29T12:30:59.265Z,9.70
2023-03-29T12:33:52.874Z,9.58
2023-03-29T12:37:03.756Z,10.05
2023-03-29T12:39:53.171Z,10.31
2023-03-29T12:43:00.801Z,10.60
2023-03-29T12:45:57.460Z,11.12
2023-03-29T12:48:31.813Z,11.44
2023-03-29T12:51:03.124Z,11.38
2023-03-29T12:53:36.596Z,10.94
2023-03-29T12:56:17.981Z,11.29
2023-03-29T12:59:18.877Z,11.66
2023-03-29T13:02:01.298Z,11.98
2023-03-29T13:04:49.829Z,11.29
2023-03-29T13:07:32.370Z,11.10
2023-03-29T13:10:04.413Z,11.13
2023-03-29T13:12:42.122Z,11.36
2023-03-29T13:15:26.243Z,11.39
2023-03-29T13:18:09.109Z,11.60
2023-03-29T13:20:47.830Z,12.62
2023-03-29T13:23:42.912Z,12.72
2023-03-29T13:26:31.524Z,12.22
2023-03-29T13:29:30.776Z,11.03
2023-03-29T13:32:08.859Z,11.44
2023-03-29T13:34:45.241Z,11.90
2023-03-29T13:37:29.873Z,12.22
2023-03-29T13:39:58.857Z,12.50
2023-03-29T13:42:41.821Z,12.49
2023-03-29T13:45:17.316Z,12.13
2023-03-29T13:47:58.766Z,11.95
2023-03-29T13:50:39.378Z,11.77
2023-03-29T13:53:16.701Z,11.80
2023-03-29T13:55:51.063Z,11.88
2023-03-29T13:58:33.925Z,11.93
2023-03-29T14:01:22.403Z,12.68
2023-03-29T14:03:52.924Z,13.69
2023-03-29T14:06:30.377Z,14.02
2023-03-29T14:09:00.767Z,13.95
2023-03-29T14:11:31.795Z,13.60
2023-03-29T14:14:05.527Z,13.01
2023-03-29T14:16:39.004Z,12.91
2023-03-29T14:19:16.873Z,13.15
2023-03-29T14:21:47.021Z,13.26
2023-03-29T14:24:26.003Z,13.23
2023-03-29T14:26:55.942Z,13.14
2023-03-29T14:29:32.407Z,12.78
2023-03-29T14:32:11.994Z,12.66
2023-03-29T14:34:41.764Z,12.47
2023-03-29T14:37:13.318Z,12.24
2023-03-29T14:39:43.082Z,12.01
2023-03-29T14:42:21.277Z,11.77
2023-03-29T14:44:52.293Z,11.57
2023-03-29T14:47:27.642Z,11.43
2023-03-29T14:50:00.689Z,11.20
2023-03-29T14:52:31.679Z,11.14
2023-03-29T14:55:04.220Z,11.16
2023-03-29T14:57:37.866Z,11.05
2023-03-29T15:00:24.577Z,11.01
2023-03-29T15:02:58.689Z,10.95
2023-03-29T15:05:37.623Z,10.91
2023-03-29T15:08:10.450Z,10.85
2023-03-29T15:10:43.003Z,10.85
2023-03-29T15:13:21.163Z,10.90
2023-03-29T15:15:55.042Z,10.93
2023-03-29T15:18:35.954Z,11.01
2023-03-29T15:21:07.672Z,11.13
2023-03-29T15:23:39.101Z,11.17
2023-03-29T15:26:14.351Z,11.09
2023-03-29T15:28:49.579Z,11.14
2023-03-29T15:31:27.841Z,11.29
2023-03-29T15:34:06.344Z,11.36
2023-03-29T15:36:43.330Z,11.19
2023-03-29T15:39:14.555Z,11.11
2023-03-29T15:41:44.541Z,11.12
2023-03-29T15:44:17.809Z,11.12
2023-03-29T15:46:48.277Z,11.15
2023-03-29T15:49:17.366Z,11.15
2023-03-29T15:51:46.421Z,11.11
2023-03-29T15:54:15.420Z,10.93
2023-03-29T15:56:49.689Z,10.69
2023-03-29T15:59:19.230Z,10.39
2023-03-29T16:01:50.363Z,10.08
2023-03-29T16:04:21.536Z,9.72
2023-03-29T16:06:53.837Z,9.58
2023-03-29T16:09:25.208Z,9.42
2023-03-29T16:11:54.356Z,9.17
2023-03-29T16:14:27.336Z,9.00
2023-03-29T16:16:58.558Z,8.95
2023-03-29T16:19:29.117Z,8.81
2023-03-29T16:21:58.734Z,8.59
2023-03-29T16:24:30.097Z,8.44
2023-03-29T16:27:01.325Z,8.33
2023-03-29T16:29:30.870Z,8.23
2023-03-29T16:32:04.045Z,8.16
2023-03-29T16:34:36.076Z,8.08
2023-03-29T16:37:07.636Z,8.06
2023-03-29T16:39:37.894Z,7.95
2023-03-29T16:42:07.222Z,7.89
2023-03-29T16:44:36.264Z,7.91
2023-03-29T16:47:07.007Z,7.84
2023-03-29T16:49:37.583Z,7.80
2023-03-29T16:52:08.182Z,7.79
2023-03-29T16:54:37.300Z,7.74
2023-03-29T16:57:07.149Z,7.73
2023-03-29T16:59:36.246Z,7.65
2023-03-29T17:02:06.735Z,7.57
2023-03-29T17:04:36.192Z,7.59
2023-03-29T17:07:05.477Z,7.55
2023-03-29T17:09:34.841Z,7.58
2023-03-29T17:12:03.972Z,7.49
2023-03-29T17:14:33.318Z,7.44
2023-03-29T17:17:02.404Z,7.44
2023-03-29T17:19:36.066Z,7.34
2023-03-29T17:22:05.132Z,7.27
2023-03-29T17:24:37.442Z,7.23
2023-03-29T17:27:06.560Z,7.19
2023-03-29T17:29:35.916Z,7.09
2023-03-29T17:32:08.845Z,7.03
2023-03-29T17:34:39.236Z,7.01
2023-03-29T17:37:09.692Z,6.94
2023-03-29T17:39:38.744Z,6.90
2023-03-29T17:42:09.026Z,6.81
2023-03-29T17:44:38.155Z,6.74
2023-03-29T17:47:07.610Z,6.74
2023-03-29T17:49:38.393Z,6.72
2023-03-29T17:52:07.829Z,6.64
2023-03-29T17:54:37.159Z,6.57
2023-03-29T17:57:07.482Z,6.51
2023-03-29T17:59:37.364Z,6.53
2023-03-29T18:02:07.235Z,6.53
2023-03-29T18:04:36.308Z,6.55
2023-03-29T18:07:06.844Z,6.53
2023-03-29T18:09:40.313Z,6.56
2023-03-29T18:12:09.762Z,6.49
2023-03-29T18:14:39.061Z,6.47
2023-03-29T18:17:08.485Z,6.51
2023-03-29T18:19:38.560Z,6.41
2023-03-29T18:22:09.767Z,6.36
2023-03-29T18:24:39.437Z,6.31
2023-03-29T18:27:09.212Z,6.29
2023-03-29T18:29:39.529Z,6.58
2023-03-29T18:32:09.514Z,6.40
2023-03-29T18:34:42.379Z,6.19
2023-03-29T18:37:17.821Z,5.95
2023-03-29T18:39:50.773Z,5.89
2023-03-29T18:42:22.039Z,5.85
2023-03-29T18:44:51.243Z,5.85
2023-03-29T18:47:20.583Z,5.95
2023-03-29T18:49:49.862Z,5.79
2023-03-29T18:52:21.086Z,5.70
2023-03-29T18:54:50.695Z,5.59
2023-03-29T18:57:20.101Z,5.49
2023-03-29T18:59:49.456Z,5.43
2023-03-29T19:02:19.021Z,5.32
2023-03-29T19:04:53.702Z,5.11
2023-03-29T19:07:24.432Z,4.95
2023-03-29T19:09:54.198Z,4.75
2023-03-29T19:12:25.014Z,4.57
2023-03-29T19:14:55.430Z,4.26
2023-03-29T19:17:24.740Z,4.03
2023-03-29T19:19:57.666Z,3.93
2023-03-29T19:22:28.382Z,3.89
2023-03-29T19:24:57.680Z,3.96
2023-03-29T19:27:29.246Z,3.82
2023-03-29T19:29:58.653Z,3.73
2023-03-29T19:32:33.747Z,3.47
2023-03-29T19:35:03.089Z,3.36
2023-03-29T19:37:37.430Z,3.34
2023-03-29T19:40:16.323Z,3.30
2023-03-29T19:42:51.538Z,3.27
2023-03-29T19:45:23.606Z,3.08
2023-03-29T19:48:04.907Z,2.86
2023-03-29T19:50:34.239Z,2.65
2023-03-29T19:53:05.568Z,2.61
2023-03-29T19:55:37.948Z,2.53
2023-03-29T19:58:09.787Z,2.34
2023-03-29T20:00:40.254Z,2.38
2023-03-29T20:03:10.712Z,2.71
2023-03-29T20:05:40.746Z,2.71
2023-03-29T20:08:11.301Z,2.76
2023-03-29T20:10:40.729Z,2.51
2023-03-29T20:13:10.076Z,2.49
2023-03-29T20:15:39.569Z,2.57
2023-03-29T20:18:09.175Z,2.47
2023-03-29T20:20:39.028Z,2.31
2023-03-29T20:23:08.867Z,2.35
2023-03-29T20:25:40.933Z,2.49
2023-03-29T20:28:14.892Z,2.28
2023-03-29T20:30:44.136Z,2.13
2023-03-29T20:33:17.343Z,2.00
2023-03-29T20:35:46.600Z,1.86
2023-03-29T20:38:16.504Z,1.70
2023-03-29T20:40:50.478Z,1.52
2023-03-29T20:43:20.339Z,1.50
2023-03-29T20:45:53.990Z,1.51
2023-03-29T20:48:31.236Z,1.33
2023-03-29T20:51:03.214Z,1.25
2023-03-29T20:53:34.507Z,1.30
2023-03-29T20:56:06.553Z,1.20
2023-03-29T20:58:35.916Z,1.11
2023-03-29T21:01:05.139Z,1.18
2023-03-29T21:03:34.481Z,1.44
2023-03-29T21:06:03.984Z,1.51
2023-03-29T21:08:33.677Z,1.65
2023-03-29T21:11:08.141Z,1.73
2023-03-29T21:13:37.526Z,1.47
2023-03-29T21:16:09.962Z,1.22
2023-03-29T21:18:40.083Z,1.05
2023-03-29T21:21:09.811Z,1.11
2023-03-29T21:23:39.782Z,1.23
2023-03-29T21:26:13.265Z,1.49
2023-03-29T21:28:42.790Z,1.28
2023-03-29T21:31:11.901Z,1.02
2023-03-29T21:33:41.207Z,1.10
2023-03-29T21:36:10.510Z,1.00
2023-03-29T21:38:42.072Z,0.79
2023-03-29T21:41:13.848Z,0.82
2023-03-29T21:43:43.409Z,0.75
2023-03-29T21:46:13.467Z,0.98
2023-03-29T21:48:45.901Z,1.00
2023-03-29T21:51:15.791Z,0.96
2023-03-29T21:53:45.636Z,0.96
2023-03-29T21:56:16.319Z,0.93
2023-03-29T21:58:45.444Z,1.00
2023-03-29T22:01:14.826Z,1.14
2023-03-29T22:03:44.348Z,1.46
2023-03-29T22:06:17.909Z,1.51
2023-03-29T22:08:49.606Z,1.58
2023-03-29T22:11:29.662Z,1.60
2023-03-29T22:13:59.102Z,1.54
2023-03-29T22:16:28.790Z,1.59
2023-03-29T22:18:58.178Z,1.56
2023-03-29T22:21:31.192Z,1.57
2023-03-29T22:24:04.833Z,1.59
2023-03-29T22:26:35.642Z,1.52
2023-03-29T22:29:04.768Z,1.64
2023-03-29T22:31:34.194Z,1.70
2023-03-29T22:34:03.385Z,1.84
2023-03-29T22:36:33.172Z,2.14
2023-03-29T22:39:02.446Z,2.15
2023-03-29T22:41:31.814Z,2.03
2023-03-29T22:44:02.604Z,2.09
2023-03-29T22:46:31.959Z,2.08
2023-03-29T22:49:01.179Z,2.42
2023-03-29T22:51:30.239Z,2.37
2023-03-29T22:53:59.485Z,2.20
2023-03-29T22:56:28.969Z,2.19
2023-03-29T22:58:59.180Z,2.19
2023-03-29T23:01:29.860Z,2.31
2023-03-29T23:03:59.050Z,2.43
2023-03-29T23:06:30.765Z,2.38
2023-03-29T23:09:00.035Z,2.37
2023-03-29T23:11:29.158Z,2.51
2023-03-29T23:14:00.142Z,2.65
2023-03-29T23:16:32.954Z,2.67
2023-03-29T23:19:04.980Z,2.63
2023-03-29T23:21:35.997Z,2.57
2023-03-29T23:24:06.589Z,2.50
2023-03-29T23:26:35.861Z,2.55
2023-03-29T23:29:04.940Z,2.46
2023-03-29T23:31:37.821Z,2.56
2023-03-29T23:34:09.872Z,2.49
2023-03-29T23:36:42.135Z,2.55
2023-03-29T23:39:11.130Z,2.68
2023-03-29T23:41:40.574Z,2.76
2023-03-29T23:44:10.320Z,2.87
2023-03-29T23:46:41.061Z,2.88
2023-03-29T23:49:10.658Z,2.84
2023-03-29T23:51:39.731Z,2.90
2023-03-29T23:54:08.825Z,2.92
2023-03-29T23:56:38.182Z,2.94
2023-03-29T23:59:07.558Z,2.87
